createdAt,value
2023-04-15T00:02:26.289Z,100.00
2023-04-15T00:05:35.015Z,100.00
2023-04-15T00:08:43.084Z,100.00
2023-04-15T00:11:58.092Z,100.00
2023-04-15T00:15:06.084Z,100.00
2023-04-15T00:18:14.791Z,100.00
2023-04-15T00:21:23.061Z,100.00
2023-04-15T00:24:38.058Z,100.00
2023-04-15T00:27:53.060Z,100.00
2023-04-15T00:31:02.173Z,100.00
2023-04-15T00:34:17.092Z,100.00
2023-04-15T00:37:32.091Z,100.00
2023-04-15T00:40:48.092Z,100.00
2023-04-15T00:43:56.758Z,100.00
2023-04-15T00:47:06.061Z,100.00
2023-04-15T00:50:21.063Z,100.00
2023-04-15T00:53:29.695Z,100.00
2023-04-15T00:56:42.086Z,100.00
2023-04-15T01:00:05.058Z,100.00
2023-04-15T01:03:20.245Z,100.00
2023-04-15T01:06:29.083Z,100.00
2023-04-15T01:09:44.064Z,100.00
2023-04-15T01:12:53.044Z,100.00
2023-04-15T01:16:01.934Z,100.00
2023-04-15T01:19:11.083Z,100.00
2023-04-15T01:22:27.078Z,100.00
2023-04-15T01:25:39.061Z,100.00
2023-04-15T01:28:54.100Z,100.00
2023-04-15T01:31:56.522Z,100.00
2023-04-15T01:35:11.094Z,100.00
2023-04-15T01:38:13.330Z,100.00
2023-04-15T01:41:32.093Z,100.00
2023-04-15T01:44:40.078Z,100.00
2023-04-15T01:47:48.649Z,100.00
2023-04-15T01:51:03.056Z,100.00
2023-04-15T01:54:11.652Z,100.00
2023-04-15T01:57:26.093Z,100.00
2023-04-15T02:00:41.369Z,100.00
2023-04-15T02:03:57.131Z,100.00
2023-04-15T02:07:05.646Z,100.00
2023-04-15T02:10:14.098Z,100.00
2023-04-15T02:13:22.693Z,100.00
2023-04-15T02:16:37.129Z,100.00
2023-04-15T02:19:52.074Z,100.00
2023-04-15T02:23:00.157Z,100.00
2023-04-15T02:26:15.091Z,100.00
2023-04-15T02:29:16.998Z,100.00
2023-04-15T02:32:32.172Z,100.00
2023-04-15T02:35:41.086Z,100.00
2023-04-15T02:38:49.766Z,100.00
2023-04-15T02:41:58.312Z,100.00
2023-04-15T02:45:07.554Z,100.00
2023-04-15T02:48:22.089Z,100.00
2023-04-15T02:51:31.163Z,100.00
2023-04-15T02:54:46.095Z,100.00
2023-04-15T02:57:48.014Z,100.00
2023-04-15T03:01:10.132Z,100.00
2023-04-15T03:04:12.108Z,100.00
2023-04-15T03:07:27.075Z,100.00
2023-04-15T03:10:29.025Z,100.00
2023-04-15T03:13:44.079Z,100.00
2023-04-15T03:16:52.625Z,100.00
2023-04-15T03:20:09.151Z,100.00
2023-04-15T03:23:24.061Z,100.00
2023-04-15T03:26:32.692Z,100.00
2023-04-15T03:29:42.068Z,100.00
2023-04-15T03:32:50.703Z,100.00
2023-04-15T03:36:05.078Z,100.00
2023-04-15T03:39:13.892Z,100.00
2023-04-15T03:42:23.241Z,100.00
2023-04-15T03:45:31.774Z,100.00
2023-04-15T03:48:40.074Z,100.00
2023-04-15T03:51:55.118Z,100.00
2023-04-15T03:54:57.051Z,100.00
2023-04-15T03:58:12.076Z,100.00
2023-04-15T04:01:27.329Z,100.00
2023-04-15T04:04:42.115Z,100.00
2023-04-15T04:07:44.122Z,100.00
2023-04-15T04:10:59.117Z,100.00
2023-04-15T04:14:01.019Z,100.00
2023-04-15T04:17:16.094Z,100.00
2023-04-15T04:20:17.996Z,100.00
2023-04-15T04:23:34.089Z,100.00
2023-04-15T04:26:49.068Z,100.00
2023-04-15T04:30:04.189Z,100.00
2023-04-15T04:33:07.261Z,100.00
2023-04-15T04:36:22.102Z,100.00
2023-04-15T04:39:30.776Z,100.00
2023-04-15T04:42:46.089Z,100.00
2023-04-15T04:45:54.663Z,100.00
2023-04-15T04:49:03.248Z,100.00
2023-04-15T04:52:12.066Z,100.00
2023-04-15T04:55:27.073Z,100.00
2023-04-15T04:58:35.069Z,100.00
2023-04-15T05:01:51.068Z,100.00
2023-04-15T05:04:59.649Z,100.00
2023-04-15T05:08:08.075Z,100.00
2023-04-15T05:11:16.703Z,100.00
2023-04-15T05:14:31.086Z,100.00
2023-04-15T05:17:39.726Z,100.00
2023-04-15T05:20:55.061Z,100.00
2023-04-15T05:24:04.067Z,100.00
2023-04-15T05:27:26.097Z,100.00
2023-04-15T05:30:34.911Z,100.00
2023-04-15T05:33:50.065Z,100.00
2023-04-15T05:36:52.124Z,100.00
2023-04-15T05:40:07.059Z,100.00
2023-04-15T05:43:09.088Z,100.00
2023-04-15T05:46:27.104Z,100.00
2023-04-15T05:49:29.155Z,100.00
2023-04-15T05:52:44.064Z,100.00
2023-04-15T05:55:53.082Z,100.00
2023-04-15T05:59:15.077Z,100.00
2023-04-15T06:02:30.179Z,100.00
2023-04-15T06:05:38.651Z,100.00
2023-04-15T06:08:53.088Z,100.00
2023-04-15T06:12:02.073Z,100.00
2023-04-15T06:15:11.084Z,100.00
2023-04-15T06:18:26.092Z,100.00
2023-04-15T06:21:34.744Z,100.00
2023-04-15T06:24:49.048Z,100.00
2023-04-15T06:27:50.938Z,100.00
2023-04-15T06:31:07.121Z,100.00
2023-04-15T06:34:09.044Z,100.00
2023-04-15T06:37:24.063Z,100.00
2023-04-15T06:40:32.710Z,100.00
2023-04-15T06:43:41.067Z,100.00
2023-04-15T06:46:49.641Z,100.00
2023-04-15T06:49:58.083Z,100.00
2023-04-15T06:53:13.093Z,100.00
2023-04-15T06:56:22.107Z,100.00
2023-04-15T06:59:44.067Z,100.00
2023-04-15T07:02:59.088Z,100.00
2023-04-15T07:06:07.703Z,100.00
2023-04-15T07:09:22.066Z,100.00
2023-04-15T07:12:23.956Z,100.00
2023-04-15T07:15:41.573Z,100.00
2023-04-15T07:18:50.259Z,100.00
2023-04-15T07:21:59.071Z,100.00
2023-04-15T07:25:08.229Z,99.19
2023-04-15T07:28:17.070Z,98.65
2023-04-15T07:31:25.742Z,98.09
2023-04-15T07:34:41.086Z,93.34
2023-04-15T07:37:42.950Z,93.65
2023-04-15T07:40:58.111Z,92.32
2023-04-15T07:44:13.155Z,90.97
2023-04-15T07:47:21.659Z,90.91
2023-04-15T07:50:36.076Z,87.51
2023-04-15T07:53:51.097Z,87.38
2023-04-15T07:57:06.060Z,85.65
2023-04-15T08:00:08.547Z,87.74
2023-04-15T08:03:30.162Z,85.69
2023-04-15T08:06:32.638Z,88.25
2023-04-15T08:09:47.060Z,85.08
2023-04-15T08:12:48.935Z,86.52
2023-04-15T08:16:26.082Z,83.96
2023-04-15T08:19:28.139Z,84.24
2023-04-15T08:22:43.102Z,82.91
2023-04-15T08:25:58.067Z,82.79
2023-04-15T08:29:00.641Z,81.55
2023-04-15T08:32:16.062Z,82.22
2023-04-15T08:35:24.664Z,80.36
2023-04-15T08:38:42.088Z,82.21
2023-04-15T08:42:08.097Z,84.01
2023-04-15T08:45:12.724Z,83.45
2023-04-15T08:48:31.093Z,81.63
2023-04-15T08:51:33.184Z,82.88
2023-04-15T08:54:49.093Z,81.51
2023-04-15T08:57:57.686Z,80.88
2023-04-15T09:01:06.067Z,81.66
2023-04-15T09:04:21.091Z,81.64
2023-04-15T09:07:22.980Z,81.24
2023-04-15T09:10:39.098Z,77.73
2023-04-15T09:13:47.851Z,78.00
2023-04-15T09:17:10.100Z,77.82
2023-04-15T09:20:18.834Z,78.51
2023-04-15T09:23:27.097Z,78.27
2023-04-15T09:26:38.025Z,78.63
2023-04-15T09:29:57.144Z,76.70
2023-04-15T09:33:04.358Z,76.17
2023-04-15T09:36:19.098Z,74.43
2023-04-15T09:39:21.040Z,75.28
2023-04-15T09:42:36.083Z,73.38
2023-04-15T09:45:52.740Z,74.04
2023-04-15T09:49:18.135Z,74.81
2023-04-15T09:52:27.016Z,76.14
2023-04-15T09:55:42.088Z,75.49
2023-04-15T09:58:51.119Z,74.13
2023-04-15T10:02:13.167Z,74.36
2023-04-15T10:05:22.095Z,76.68
2023-04-15T10:08:40.077Z,74.94
2023-04-15T10:11:57.095Z,75.31
2023-04-15T10:15:03.193Z,76.08
2023-04-15T10:18:22.112Z,77.94
2023-04-15T10:21:31.093Z,79.53
2023-04-15T10:24:40.764Z,81.10
2023-04-15T10:27:57.080Z,85.48
2023-04-15T10:31:06.086Z,81.66
2023-04-15T10:34:15.832Z,79.14
2023-04-15T10:37:45.095Z,81.00
2023-04-15T10:40:54.089Z,82.23
2023-04-15T10:44:05.037Z,80.66
2023-04-15T10:47:26.125Z,78.71
2023-04-15T10:50:31.893Z,77.34
2023-04-15T10:53:52.135Z,77.14
2023-04-15T10:57:00.609Z,77.51
2023-04-15T11:00:20.075Z,78.15
2023-04-15T11:03:45.245Z,83.91
2023-04-15T11:07:12.087Z,87.94
2023-04-15T11:10:27.112Z,91.08
2023-04-15T11:13:36.080Z,89.39
2023-04-15T11:16:44.991Z,88.93
2023-04-15T11:20:01.110Z,87.35
2023-04-15T11:23:14.591Z,90.39
2023-04-15T11:26:33.103Z,89.93
2023-04-15T11:29:41.828Z,87.20
2023-04-15T11:33:02.211Z,84.77
2023-04-15T11:36:04.518Z,84.97
2023-04-15T11:39:19.110Z,84.34
2023-04-15T11:42:36.216Z,83.83
2023-04-15T11:46:06.112Z,84.80
2023-04-15T11:49:36.097Z,85.78
2023-04-15T11:52:45.115Z,80.93
2023-04-15T11:55:54.114Z,80.73
2023-04-15T11:59:10.084Z,81.37
2023-04-15T12:02:25.304Z,82.94
2023-04-15T12:05:33.695Z,82.51
2023-04-15T12:08:55.110Z,81.92
2023-04-15T12:12:10.096Z,83.04
2023-04-15T12:15:49.640Z,83.65
2023-04-15T12:19:06.082Z,81.76
2023-04-15T12:22:23.090Z,82.57
2023-04-15T12:25:35.571Z,82.24
2023-04-15T12:28:47.103Z,81.32
2023-04-15T12:32:05.136Z,80.02
2023-04-15T12:35:14.105Z,80.72
2023-04-15T12:38:29.120Z,80.31
2023-04-15T12:41:37.711Z,80.17
2023-04-15T12:44:53.126Z,80.81
2023-04-15T12:48:01.751Z,82.47
2023-04-15T12:51:16.098Z,82.18
2023-04-15T12:54:18.768Z,80.91
2023-04-15T12:57:33.090Z,81.71
2023-04-15T13:00:55.261Z,81.81
2023-04-15T13:04:22.627Z,81.59
2023-04-15T13:07:30.684Z,80.79
2023-04-15T13:10:39.113Z,81.22
2023-04-15T13:13:48.147Z,80.72
2023-04-15T13:16:56.093Z,81.88
2023-04-15T13:20:14.647Z,81.96
2023-04-15T13:23:22.784Z,82.63
2023-04-15T13:26:34.169Z,83.92
2023-04-15T13:29:43.125Z,83.04
2023-04-15T13:32:58.139Z,83.15
2023-04-15T13:36:09.441Z,82.12
2023-04-15T13:39:18.254Z,81.61
2023-04-15T13:42:26.878Z,82.56
2023-04-15T13:45:36.224Z,82.70
2023-04-15T13:48:44.810Z,83.83
2023-04-15T13:51:54.103Z,84.97
2023-04-15T13:55:06.247Z,85.78
2023-04-15T13:58:33.124Z,85.23
2023-04-15T14:01:55.217Z,85.41
2023-04-15T14:05:10.163Z,85.67
2023-04-15T14:08:18.703Z,84.92
2023-04-15T14:11:27.381Z,84.26
2023-04-15T14:14:36.114Z,84.81
2023-04-15T14:17:51.167Z,84.06
2023-04-15T14:20:53.274Z,85.11
2023-04-15T14:24:08.168Z,86.24
2023-04-15T14:27:23.090Z,87.71
2023-04-15T14:30:41.370Z,87.96
2023-04-15T14:33:56.122Z,87.85
2023-04-15T14:36:58.304Z,88.18
2023-04-15T14:40:14.287Z,88.84
2023-04-15T14:43:16.494Z,87.53
2023-04-15T14:46:32.108Z,87.06
2023-04-15T14:49:34.515Z,86.65
2023-04-15T14:52:50.141Z,86.04
2023-04-15T14:56:05.108Z,85.92
2023-04-15T14:59:20.784Z,84.18
2023-04-15T15:02:38.491Z,83.67
2023-04-15T15:05:54.348Z,82.39
2023-04-15T15:09:09.459Z,83.26
2023-04-15T15:12:24.112Z,79.60
2023-04-15T15:15:33.631Z,79.84
2023-04-15T15:18:49.101Z,79.15
2023-04-15T15:22:04.111Z,79.61
2023-04-15T15:25:13.111Z,81.85
2023-04-15T15:28:28.377Z,82.52
2023-04-15T15:31:37.312Z,83.71
2023-04-15T15:34:52.231Z,84.73
2023-04-15T15:38:00.827Z,86.91
2023-04-15T15:41:16.131Z,87.50
2023-04-15T15:44:24.937Z,88.97
2023-04-15T15:47:33.441Z,88.67
2023-04-15T15:50:42.083Z,89.14
2023-04-15T15:53:50.138Z,90.10
2023-04-15T15:56:58.839Z,91.19
2023-04-15T16:00:15.121Z,90.05
2023-04-15T16:03:24.119Z,89.23
2023-04-15T16:06:39.103Z,89.88
2023-04-15T16:09:41.466Z,90.10
2023-04-15T16:13:00.122Z,90.93
2023-04-15T16:16:08.178Z,91.50
2023-04-15T16:19:16.949Z,92.11
2023-04-15T16:22:33.140Z,92.72
2023-04-15T16:25:43.362Z,93.35
2023-04-15T16:28:52.396Z,95.68
2023-04-15T16:32:07.118Z,95.21
2023-04-15T16:35:15.693Z,95.87
2023-04-15T16:38:24.148Z,97.11
2023-04-15T16:41:34.450Z,98.50
2023-04-15T16:44:49.118Z,100.00
2023-04-15T16:47:57.714Z,100.00
2023-04-15T16:51:06.434Z,100.00
2023-04-15T16:54:15.144Z,100.00
2023-04-15T16:57:53.170Z,100.00
2023-04-15T17:00:52.540Z,100.00
2023-04-15T17:04:14.320Z,100.00
2023-04-15T17:07:30.526Z,100.00
2023-04-15T17:10:32.548Z,100.00
2023-04-15T17:13:48.103Z,100.00
2023-04-15T17:16:56.093Z,100.00
2023-04-15T17:20:12.114Z,100.00
2023-04-15T17:23:27.369Z,100.00
2023-04-15T17:26:36.100Z,100.00
2023-04-15T17:29:51.129Z,100.00
2023-04-15T17:32:59.525Z,100.00
2023-04-15T17:36:07.863Z,100.00
2023-04-15T17:39:24.560Z,100.00
2023-04-15T17:42:27.011Z,100.00
2023-04-15T17:45:42.606Z,100.00
2023-04-15T17:48:51.309Z,100.00
2023-04-15T17:52:07.298Z,100.00
2023-04-15T17:55:22.456Z,100.00
2023-04-15T17:58:27.106Z,100.00
2023-04-15T18:01:42.351Z,100.00
2023-04-15T18:05:05.641Z,100.00
2023-04-15T18:08:23.126Z,100.00
2023-04-15T18:11:33.298Z,100.00
2023-04-15T18:14:43.404Z,100.00
2023-04-15T18:17:52.340Z,100.00
2023-04-15T18:21:08.499Z,100.00
2023-04-15T18:24:11.143Z,100.00
2023-04-15T18:27:27.496Z,100.00
2023-04-15T18:30:42.556Z,100.00
2023-04-15T18:33:50.812Z,100.00
2023-04-15T18:37:07.431Z,100.00
2023-04-15T18:40:16.308Z,100.00
2023-04-15T18:43:31.612Z,100.00
2023-04-15T18:46:39.867Z,100.00
2023-04-15T18:49:48.535Z,100.00
2023-04-15T18:53:04.498Z,100.00
2023-04-15T18:56:20.540Z,100.00
2023-04-15T18:59:30.467Z,100.00
2023-04-15T19:02:45.730Z,100.00
2023-04-15T19:06:08.090Z,100.00
2023-04-15T19:09:25.080Z,100.00
2023-04-15T19:12:40.487Z,100.00
2023-04-15T19:15:49.529Z,100.00
2023-04-15T19:18:58.384Z,100.00
2023-04-15T19:22:07.103Z,100.00
2023-04-15T19:25:22.555Z,100.00
2023-04-15T19:28:39.028Z,100.00
2023-04-15T19:31:48.562Z,100.00
2023-04-15T19:34:57.457Z,100.00
2023-04-15T19:38:12.102Z,100.00
2023-04-15T19:41:21.637Z,100.00
2023-04-15T19:44:30.124Z,100.00
2023-04-15T19:47:46.549Z,100.00
2023-04-15T19:50:56.723Z,100.00
2023-04-15T19:54:12.577Z,100.00
2023-04-15T19:57:15.200Z,100.00
2023-04-15T20:00:30.230Z,100.00
2023-04-15T20:03:52.219Z,100.00
2023-04-15T20:07:01.524Z,100.00
2023-04-15T20:10:16.594Z,100.00
2023-04-15T20:13:24.996Z,100.00
2023-04-15T20:16:34.499Z,100.00
2023-04-15T20:19:43.284Z,100.00
2023-04-15T20:22:58.601Z,100.00
2023-04-15T20:26:07.469Z,100.00
2023-04-15T20:29:16.103Z,100.00
2023-04-15T20:32:27.790Z,100.00
2023-04-15T20:35:43.596Z,100.00
2023-04-15T20:38:46.122Z,100.00
2023-04-15T20:42:01.663Z,100.00
2023-04-15T20:45:14.420Z,100.00
2023-04-15T20:48:31.137Z,100.00
2023-04-15T20:51:33.531Z,100.00
2023-04-15T20:54:51.104Z,100.00
2023-04-15T20:57:59.710Z,100.00
2023-04-15T21:01:08.140Z,100.00
2023-04-15T21:04:23.437Z,100.00
2023-04-15T21:07:38.131Z,100.00
2023-04-15T21:10:40.124Z,100.00
2023-04-15T21:13:55.457Z,100.00
2023-04-15T21:16:57.521Z,100.00
2023-04-15T21:20:13.112Z,100.00
2023-04-15T21:23:21.709Z,100.00
2023-04-15T21:26:36.277Z,100.00
2023-04-15T21:29:51.111Z,100.00
2023-04-15T21:33:06.189Z,100.00
2023-04-15T21:36:14.720Z,100.00
2023-04-15T21:39:23.135Z,100.00
2023-04-15T21:42:38.115Z,100.00
2023-04-15T21:45:40.027Z,100.00
2023-04-15T21:48:55.102Z,100.00
2023-04-15T21:52:04.442Z,100.00
2023-04-15T21:55:14.117Z,100.00
2023-04-15T21:58:22.797Z,100.00
2023-04-15T22:01:32.427Z,100.00
2023-04-15T22:04:54.145Z,100.00
2023-04-15T22:08:09.100Z,100.00
2023-04-15T22:11:28.756Z,100.00
2023-04-15T22:14:37.807Z,100.00
2023-04-15T22:17:53.135Z,100.00
2023-04-15T22:20:55.158Z,100.00
2023-04-15T22:24:32.559Z,100.00
2023-04-15T22:27:45.105Z,100.00
2023-04-15T22:30:46.942Z,100.00
2023-04-15T22:34:02.119Z,100.00
2023-04-15T22:37:10.100Z,100.00
2023-04-15T22:40:19.102Z,100.00
2023-04-15T22:43:35.165Z,100.00
2023-04-15T22:46:37.254Z,100.00
2023-04-15T22:49:52.115Z,100.00
2023-04-15T22:52:54.088Z,100.00
2023-04-15T22:56:09.124Z,100.00
2023-04-15T22:59:24.169Z,100.00
2023-04-15T23:02:26.120Z,100.00
2023-04-15T23:05:48.138Z,100.00
2023-04-15T23:08:56.907Z,100.00
2023-04-15T23:12:05.140Z,100.00
2023-04-15T23:15:13.937Z,100.00
2023-04-15T23:18:22.121Z,100.00
2023-04-15T23:21:37.149Z,100.00
2023-04-15T23:24:52.114Z,100.00
2023-04-15T23:28:00.765Z,100.00
2023-04-15T23:31:15.124Z,100.00
2023-04-15T23:34:24.149Z,100.00
2023-04-15T23:37:39.114Z,100.00
2023-04-15T23:40:54.110Z,100.00
2023-04-15T23:44:09.098Z,100.00
2023-04-15T23:47:24.135Z,100.00
2023-04-15T23:50:32.893Z,100.00
2023-04-15T23:53:41.118Z,100.00
2023-04-15T23:56:56.145Z,100.00
2023-04-15T23:59:58.194Z,100.00
